Terminal Aerodrome Forecast
Issued by NWS

Home | Current Version | Previous Version | Text Only | Print | Product List | Glossary On
Versions: 1 2 3 4 5 6 7 8 9 10 11 12 13 14 15
020
FTUS45 KFGZ 200008 AAA
TAFSEZ
TAF AMD
KSEZ 200008Z 2000/2024 21009G22KT P6SM SCT110
     FM200300 VRB05KT P6SM FEW100 SCT200
     FM201700 21015G25KT P6SM SCT250=

USA.gov is the U.S. government's official web portal to all federal, state and local government web resources and services.